createdAt,value
2023-04-21T00:00:04.204Z,101888.00
2023-04-21T00:02:31.423Z,101895.00
2023-04-21T00:05:00.392Z,101890.00
2023-04-21T00:07:27.293Z,101891.00
2023-04-21T00:09:54.121Z,101890.00
2023-04-21T00:12:21.637Z,101891.00
2023-04-21T00:14:48.461Z,101894.00
2023-04-21T00:17:15.229Z,101889.00
2023-04-21T00:19:42.261Z,101891.00
2023-04-21T00:22:14.757Z,101881.00
2023-04-21T00:24:41.536Z,101890.00
2023-04-21T00:27:08.341Z,101884.00
2023-04-21T00:29:35.114Z,101887.00
2023-04-21T00:32:03.779Z,101885.00
2023-04-21T00:34:30.622Z,101888.00
2023-04-21T00:36:57.421Z,101876.00
2023-04-21T00:39:24.363Z,101877.00
2023-04-21T00:41:51.347Z,101880.00
2023-04-21T00:44:18.190Z,101878.00
2023-04-21T00:46:44.998Z,101873.00
2023-04-21T00:49:13.350Z,101887.00
2023-04-21T00:51:40.732Z,101877.00
2023-04-21T00:54:08.173Z,101874.00
2023-04-21T00:56:36.560Z,101870.00
2023-04-21T00:59:04.080Z,101879.00
2023-04-21T01:01:32.634Z,101872.00
2023-04-21T01:04:00.917Z,101879.00
2023-04-21T01:06:29.232Z,101879.00
2023-04-21T01:08:56.097Z,101862.00
2023-04-21T01:11:22.922Z,101876.00
2023-04-21T01:13:53.392Z,101870.00
2023-04-21T01:16:21.286Z,101869.00
2023-04-21T01:18:48.121Z,101873.00
2023-04-21T01:21:16.120Z,101872.00
2023-04-21T01:23:43.485Z,101860.00
2023-04-21T01:26:10.423Z,101859.00
2023-04-21T01:28:37.867Z,101856.00
2023-04-21T01:31:05.368Z,101858.00
2023-04-21T01:33:32.240Z,101862.00
2023-04-21T01:36:01.082Z,101862.00
2023-04-21T01:38:28.160Z,101863.00
2023-04-21T01:40:55.329Z,101847.00
2023-04-21T01:43:24.774Z,101862.00
2023-04-21T01:45:52.595Z,101841.00
2023-04-21T01:48:19.464Z,101848.00
2023-04-21T01:50:46.425Z,101854.00
2023-04-21T01:53:13.339Z,101848.00
2023-04-21T01:55:40.226Z,101852.00
2023-04-21T01:58:07.038Z,101847.00
2023-04-21T02:00:33.851Z,101849.00
2023-04-21T02:03:00.811Z,101838.00
2023-04-21T02:05:27.793Z,101841.00
2023-04-21T02:07:55.065Z,101837.00
2023-04-21T02:10:21.952Z,101837.00
2023-04-21T02:12:48.777Z,101838.00
2023-04-21T02:15:15.575Z,101832.00
2023-04-21T02:17:44.826Z,101842.00
2023-04-21T02:20:15.122Z,101844.00
2023-04-21T02:22:42.047Z,101838.00
2023-04-21T02:25:09.042Z,101836.00
2023-04-21T02:27:35.912Z,101830.00
2023-04-21T02:30:02.823Z,101823.00
2023-04-21T02:32:29.853Z,101825.00
2023-04-21T02:34:56.821Z,101827.00
2023-04-21T02:37:24.145Z,101809.00
2023-04-21T02:39:51.094Z,101812.00
2023-04-21T02:42:17.961Z,101823.00
2023-04-21T02:44:44.760Z,101828.00
2023-04-21T02:47:11.587Z,101820.00
2023-04-21T02:49:42.609Z,101823.00
2023-04-21T02:52:10.032Z,101826.00
2023-04-21T02:54:36.820Z,101822.00
2023-04-21T02:57:03.678Z,101813.00
2023-04-21T02:59:30.696Z,101818.00
2023-04-21T03:01:57.569Z,101810.00
2023-04-21T03:04:25.560Z,101824.00
2023-04-21T03:06:53.509Z,101817.00
2023-04-21T03:09:20.857Z,101811.00
2023-04-21T03:11:47.813Z,101807.00
2023-04-21T03:14:14.604Z,101813.00
2023-04-21T03:16:41.497Z,101802.00
2023-04-21T03:19:08.437Z,101811.00
2023-04-21T03:21:37.986Z,101803.00
2023-04-21T03:24:06.559Z,101805.00
2023-04-21T03:26:33.675Z,101807.00
2023-04-21T03:29:00.539Z,101808.00
2023-04-21T03:31:27.441Z,101798.00
2023-04-21T03:33:54.351Z,101802.00
2023-04-21T03:36:21.184Z,101813.00
2023-04-21T03:38:47.942Z,101803.00
2023-04-21T03:41:14.752Z,101811.00
2023-04-21T03:43:41.547Z,101820.00
2023-04-21T03:46:08.469Z,101810.00
2023-04-21T03:48:35.293Z,101816.00
2023-04-21T03:51:02.082Z,101810.00
2023-04-21T03:53:28.864Z,101809.00
2023-04-21T03:55:55.737Z,101800.00
2023-04-21T03:58:22.548Z,101801.00
2023-04-21T04:00:49.350Z,101811.00
2023-04-21T04:03:16.291Z,101809.00
2023-04-21T04:05:43.317Z,101802.00
2023-04-21T04:08:10.297Z,101814.00
2023-04-21T04:10:37.240Z,101799.00
2023-04-21T04:13:04.067Z,101815.00
2023-04-21T04:15:30.905Z,101820.00
2023-04-21T04:17:57.768Z,101814.00
2023-04-21T04:20:24.735Z,101796.00
2023-04-21T04:22:51.617Z,101796.00
2023-04-21T04:25:18.839Z,101809.00
2023-04-21T04:27:45.878Z,101807.00
2023-04-21T04:30:13.227Z,101802.00
2023-04-21T04:32:40.159Z,101809.00
2023-04-21T04:35:08.215Z,101800.00
2023-04-21T04:37:38.176Z,101804.00
2023-04-21T04:40:06.414Z,101809.00
2023-04-21T04:42:33.259Z,101808.00
2023-04-21T04:45:01.835Z,101804.00
2023-04-21T04:47:31.882Z,101810.00
2023-04-21T04:49:58.779Z,101809.00
2023-04-21T04:52:26.287Z,101819.00
2023-04-21T04:54:53.158Z,101805.00
2023-04-21T04:57:19.939Z,101804.00
2023-04-21T04:59:46.861Z,101820.00
2023-04-21T05:02:16.481Z,101827.00
2023-04-21T05:04:43.568Z,101823.00
2023-04-21T05:07:10.427Z,101830.00
2023-04-21T05:09:37.339Z,101828.00
2023-04-21T05:12:04.388Z,101820.00
2023-04-21T05:14:31.292Z,101830.00
2023-04-21T05:16:58.333Z,101828.00
2023-04-21T05:19:26.013Z,101830.00
2023-04-21T05:21:53.193Z,101820.00
2023-04-21T05:24:24.266Z,101828.00
2023-04-21T05:26:51.124Z,101831.00
2023-04-21T05:29:17.977Z,101830.00
2023-04-21T05:31:44.882Z,101842.00
2023-04-21T05:34:11.758Z,101826.00
2023-04-21T05:36:42.397Z,101842.00
2023-04-21T05:39:09.627Z,101838.00
2023-04-21T05:41:36.588Z,101840.00
2023-04-21T05:44:03.452Z,101837.00
2023-04-21T05:46:30.388Z,101842.00
2023-04-21T05:48:57.252Z,101823.00
2023-04-21T05:51:24.125Z,101821.00
2023-04-21T05:53:51.504Z,101843.00
2023-04-21T05:56:18.802Z,101838.00
2023-04-21T05:58:45.874Z,101845.00
2023-04-21T06:01:13.090Z,101846.00
2023-04-21T06:03:40.106Z,101837.00
2023-04-21T06:06:07.253Z,101833.00
2023-04-21T06:08:34.109Z,101825.00
2023-04-21T06:11:00.899Z,101816.00
2023-04-21T06:13:32.295Z,101829.00
2023-04-21T06:15:59.307Z,101828.00
2023-04-21T06:18:29.374Z,101823.00
2023-04-21T06:20:56.652Z,101826.00
2023-04-21T06:23:23.566Z,101823.00
2023-04-21T06:26:01.396Z,101827.00
2023-04-21T06:28:28.358Z,101828.00
2023-04-21T06:30:55.292Z,101847.00
2023-04-21T06:33:22.152Z,101839.00
2023-04-21T06:35:48.998Z,101845.00
2023-04-21T06:38:16.090Z,101826.00
2023-04-21T06:40:42.903Z,101834.00
2023-04-21T06:43:09.721Z,101829.00
2023-04-21T06:45:36.653Z,101818.00
2023-04-21T06:48:03.651Z,101821.00
2023-04-21T06:50:30.569Z,101824.00
2023-04-21T06:52:57.438Z,101822.00
2023-04-21T06:55:24.325Z,101831.00
2023-04-21T06:57:51.155Z,101826.00
2023-04-21T07:00:18.236Z,101839.00
2023-04-21T07:02:45.205Z,101823.00
2023-04-21T07:05:12.052Z,101832.00
2023-04-21T07:07:38.855Z,101826.00
2023-04-21T07:10:06.252Z,101823.00
2023-04-21T07:12:33.181Z,101811.00
2023-04-21T07:14:59.989Z,101825.00
2023-04-21T07:17:26.894Z,101832.00
2023-04-21T07:19:53.690Z,101817.00
2023-04-21T07:22:20.522Z,101824.00
2023-04-21T07:24:49.233Z,101824.00
2023-04-21T07:27:19.021Z,101840.00
2023-04-21T07:29:46.067Z,101819.00
2023-04-21T07:32:12.947Z,101822.00
2023-04-21T07:34:40.245Z,101822.00
2023-04-21T07:37:07.141Z,101817.00
2023-04-21T07:39:33.985Z,101812.00
2023-04-21T07:42:00.822Z,101821.00
2023-04-21T07:44:29.433Z,101826.00
2023-04-21T07:46:56.506Z,101821.00
2023-04-21T07:49:23.531Z,101833.00
2023-04-21T07:51:50.572Z,101823.00
2023-04-21T07:54:17.422Z,101820.00
2023-04-21T07:56:44.244Z,101818.00
2023-04-21T07:59:11.113Z,101824.00
2023-04-21T08:01:37.918Z,101814.00
2023-04-21T08:04:04.836Z,101830.00
2023-04-21T08:06:33.620Z,101823.00
2023-04-21T08:09:00.624Z,101804.00
2023-04-21T08:11:28.636Z,101821.00
2023-04-21T08:13:55.457Z,101815.00
2023-04-21T08:16:22.367Z,101823.00
2023-04-21T08:18:49.514Z,101814.00
2023-04-21T08:21:16.720Z,101807.00
2023-04-21T08:23:43.563Z,101814.00
2023-04-21T08:26:10.925Z,101823.00
2023-04-21T08:28:37.833Z,101819.00
2023-04-21T08:31:05.290Z,101817.00
2023-04-21T08:33:32.139Z,101802.00
2023-04-21T08:36:05.452Z,101794.00
2023-04-21T08:38:35.498Z,101811.00
2023-04-21T08:41:03.505Z,101803.00
2023-04-21T08:43:30.390Z,101803.00
2023-04-21T08:45:57.794Z,101807.00
2023-04-21T08:48:26.235Z,101801.00
2023-04-21T08:50:53.885Z,101802.00
2023-04-21T08:53:21.651Z,101805.00
2023-04-21T08:56:07.653Z,101811.00
2023-04-21T08:58:37.403Z,101817.00
2023-04-21T09:01:04.428Z,101808.00
2023-04-21T09:03:31.497Z,101823.00
2023-04-21T09:06:06.690Z,101823.00
2023-04-21T09:08:36.923Z,101811.00
2023-04-21T09:11:03.939Z,101811.00
2023-04-21T09:13:35.833Z,101836.00
2023-04-21T09:16:08.473Z,101803.00
2023-04-21T09:18:37.535Z,101818.00
2023-04-21T09:21:12.950Z,101820.00
2023-04-21T09:23:50.155Z,101815.00
2023-04-21T09:26:19.083Z,101808.00
2023-04-21T09:28:48.039Z,101814.00
2023-04-21T09:31:20.251Z,101818.00
2023-04-21T09:36:26.276Z,101797.00
2023-04-21T09:41:33.497Z,101831.00
2023-04-21T09:44:01.638Z,101838.00
2023-04-21T09:46:30.321Z,101814.00
2023-04-21T09:49:00.217Z,101812.00
2023-04-21T09:51:42.870Z,101803.00
2023-04-21T09:54:28.913Z,101792.00
2023-04-21T09:56:59.760Z,101809.00
2023-04-21T09:59:29.824Z,101799.00
2023-04-21T10:01:57.866Z,101791.00
2023-04-21T10:04:26.463Z,101779.00
2023-04-21T10:06:53.670Z,101798.00
2023-04-21T10:09:22.859Z,101811.00
2023-04-21T10:11:49.723Z,101808.00
2023-04-21T10:14:16.580Z,101813.00
2023-04-21T10:16:43.637Z,101798.00
2023-04-21T10:19:27.002Z,101799.00
2023-04-21T10:21:59.928Z,101795.00
2023-04-21T10:24:30.579Z,101777.00
2023-04-21T10:27:01.704Z,101777.00
2023-04-21T10:29:40.223Z,101791.00
2023-04-21T10:32:11.280Z,101791.00
2023-04-21T10:34:38.815Z,101789.00
2023-04-21T10:37:05.730Z,101781.00
2023-04-21T10:39:43.204Z,101777.00
2023-04-21T10:42:13.276Z,101762.00
2023-04-21T10:44:44.897Z,101766.00
2023-04-21T10:47:11.780Z,101779.00
2023-04-21T10:49:39.932Z,101759.00
2023-04-21T10:52:12.195Z,101753.00
2023-04-21T10:54:46.441Z,101776.00
2023-04-21T10:57:18.794Z,101773.00
2023-04-21T10:59:46.758Z,101753.00
2023-04-21T11:02:18.678Z,101766.00
2023-04-21T11:04:50.915Z,101766.00
2023-04-21T11:07:23.169Z,101760.00
2023-04-21T11:10:00.464Z,101755.00
2023-04-21T11:12:30.014Z,101756.00
2023-04-21T11:14:57.427Z,101749.00
2023-04-21T11:17:26.071Z,101732.00
2023-04-21T13:27:34.266Z,101642.00
2023-04-21T13:30:01.153Z,101621.00
2023-04-21T13:32:28.026Z,101636.00
2023-04-21T13:34:54.891Z,101637.00
2023-04-21T13:37:21.762Z,101627.00
2023-04-21T13:39:48.883Z,101628.00
2023-04-21T13:42:15.859Z,101631.00
2023-04-21T13:44:42.787Z,101622.00
2023-04-21T13:47:09.912Z,101600.00
2023-04-21T13:49:36.887Z,101592.00
2023-04-21T13:52:03.830Z,101585.00
2023-04-21T13:54:31.365Z,101572.00
2023-04-21T13:56:58.549Z,101578.00
2023-04-21T13:59:25.593Z,101594.00
2023-04-21T14:01:52.410Z,101584.00
2023-04-21T14:04:21.144Z,101571.00
2023-04-21T14:06:50.002Z,101553.00
2023-04-21T14:09:16.836Z,101565.00
2023-04-21T14:11:43.688Z,101548.00
2023-04-21T14:14:10.643Z,101558.00
2023-04-21T14:16:38.040Z,101554.00
2023-04-21T14:19:04.915Z,101556.00
2023-04-21T14:21:32.690Z,101537.00
2023-04-21T14:23:59.632Z,101544.00
2023-04-21T14:26:26.456Z,101540.00
2023-04-21T14:28:56.408Z,101537.00
2023-04-21T14:31:23.352Z,101541.00
2023-04-21T14:33:50.288Z,101538.00
2023-04-21T14:36:17.242Z,101512.00
2023-04-21T14:38:46.735Z,101521.00
2023-04-21T14:41:13.620Z,101520.00
2023-04-21T14:43:40.551Z,101522.00
2023-04-21T14:46:07.557Z,101516.00
2023-04-21T14:48:34.437Z,101505.00
2023-04-21T14:51:01.367Z,101513.00
2023-04-21T14:53:28.169Z,101512.00
2023-04-21T14:55:55.058Z,101498.00
2023-04-21T14:58:21.999Z,101497.00
2023-04-21T15:00:48.930Z,101495.00
2023-04-21T15:03:16.096Z,101496.00
2023-04-21T15:05:43.106Z,101472.00
2023-04-21T15:08:11.772Z,101500.00
2023-04-21T15:10:38.761Z,101487.00
2023-04-21T15:13:05.698Z,101469.00
2023-04-21T15:15:32.647Z,101459.00
2023-04-21T15:17:59.617Z,101456.00
2023-04-21T15:20:40.653Z,101463.00
2023-04-21T15:23:11.901Z,101449.00
2023-04-21T15:25:39.968Z,101439.00
2023-04-21T15:28:09.882Z,101442.00
2023-04-21T15:30:36.800Z,101430.00
2023-04-21T15:33:03.949Z,101426.00
2023-04-21T15:35:31.088Z,101417.00
2023-04-21T15:37:58.014Z,101404.00
2023-04-21T15:40:24.989Z,101414.00
2023-04-21T15:42:52.021Z,101402.00
2023-04-21T15:45:18.904Z,101407.00
2023-04-21T15:47:45.883Z,101408.00
2023-04-21T15:50:12.776Z,101398.00
2023-04-21T15:52:43.206Z,101402.00
2023-04-21T15:55:13.258Z,101407.00
2023-04-21T15:57:40.195Z,101397.00
2023-04-21T16:00:10.087Z,101377.00
2023-04-21T16:02:37.504Z,101385.00
2023-04-21T16:05:05.100Z,101378.00
2023-04-21T16:07:32.214Z,101376.00
2023-04-21T16:09:59.094Z,101366.00
2023-04-21T16:12:29.259Z,101360.00
2023-04-21T16:15:04.061Z,101357.00
2023-04-21T16:17:40.505Z,101364.00
2023-04-21T16:20:08.106Z,101347.00
2023-04-21T16:22:35.404Z,101356.00
2023-04-21T16:25:02.424Z,101350.00
2023-04-21T16:27:29.300Z,101345.00
2023-04-21T16:29:56.109Z,101340.00
2023-04-21T16:32:23.104Z,101337.00
2023-04-21T16:34:50.070Z,101342.00
2023-04-21T16:37:19.989Z,101345.00
2023-04-21T16:39:46.998Z,101344.00
2023-04-21T16:42:14.117Z,101356.00
2023-04-21T16:44:41.288Z,101340.00
2023-04-21T16:47:08.657Z,101338.00
2023-04-21T16:49:35.730Z,101343.00
2023-04-21T16:52:04.232Z,101329.00
2023-04-21T16:54:34.223Z,101331.00
2023-04-21T16:57:04.171Z,101321.00
2023-04-21T18:51:33.482Z,101285.00
2023-04-21T18:54:00.577Z,101283.00
2023-04-21T18:56:31.300Z,101286.00
2023-04-21T18:58:58.771Z,101283.00
2023-04-21T19:01:26.175Z,101288.00
2023-04-21T19:03:53.566Z,101283.00
2023-04-21T19:06:20.848Z,101283.00
2023-04-21T19:08:51.053Z,101285.00
2023-04-21T19:11:17.978Z,101279.00
2023-04-21T19:13:44.901Z,101285.00
2023-04-21T19:16:11.859Z,101283.00
2023-04-21T19:18:38.711Z,101274.00
2023-04-21T19:21:06.650Z,101267.00
2023-04-21T19:23:33.797Z,101269.00
2023-04-21T19:26:04.628Z,101274.00
2023-04-21T19:28:37.134Z,101262.00
2023-04-21T19:31:04.268Z,101263.00
2023-04-21T19:33:31.691Z,101268.00
2023-04-21T19:35:58.869Z,101277.00
2023-04-21T19:38:29.226Z,101264.00
2023-04-21T19:41:02.027Z,101262.00
2023-04-21T19:43:29.154Z,101261.00
2023-04-21T19:45:56.867Z,101262.00
2023-04-21T19:48:23.923Z,101264.00
2023-04-21T19:50:53.927Z,101260.00
2023-04-21T19:53:21.164Z,101254.00
2023-04-21T19:55:52.980Z,101250.00
2023-04-21T19:58:32.596Z,101266.00
2023-04-21T20:01:07.299Z,101261.00
2023-04-21T20:03:34.441Z,101257.00
2023-04-21T20:06:02.277Z,101256.00
2023-04-21T20:08:29.476Z,101249.00
2023-04-21T20:10:56.300Z,101235.00
2023-04-21T20:13:23.789Z,101243.00
2023-04-21T20:15:50.665Z,101241.00
2023-04-21T20:18:17.585Z,101233.00
2023-04-21T20:20:44.464Z,101237.00
2023-04-21T20:23:14.524Z,101235.00
2023-04-21T20:25:41.964Z,101235.00
2023-04-21T20:28:09.615Z,101228.00
2023-04-21T20:30:36.521Z,101227.00
2023-04-21T20:33:03.401Z,101223.00
2023-04-21T20:35:30.594Z,101216.00
2023-04-21T20:37:58.538Z,101214.00
2023-04-21T20:40:25.402Z,101217.00
2023-04-21T20:42:52.216Z,101213.00
2023-04-21T20:45:19.746Z,101217.00
2023-04-21T20:47:46.620Z,101222.00
2023-04-21T20:50:15.465Z,101217.00
2023-04-21T20:52:42.549Z,101213.00
2023-04-21T20:55:19.163Z,101206.00
2023-04-21T20:57:46.226Z,101200.00
2023-04-21T21:00:13.672Z,101198.00
2023-04-21T21:02:41.246Z,101192.00
2023-04-21T21:05:08.493Z,101192.00
2023-04-21T21:07:39.837Z,101200.00
2023-04-21T21:10:08.115Z,101189.00
2023-04-21T21:12:34.939Z,101191.00
2023-04-21T21:15:01.811Z,101181.00
2023-04-21T21:17:28.696Z,101189.00
2023-04-21T21:19:56.004Z,101179.00
2023-04-21T21:22:22.795Z,101175.00
2023-04-21T21:24:50.463Z,101175.00
2023-04-21T21:27:17.280Z,101177.00
2023-04-21T21:29:44.342Z,101176.00
2023-04-21T21:32:11.690Z,101183.00
2023-04-21T21:34:38.576Z,101186.00
2023-04-21T21:37:05.363Z,101174.00
2023-04-21T21:39:32.182Z,101176.00
2023-04-21T21:41:58.920Z,101166.00
2023-04-21T21:44:25.753Z,101157.00
2023-04-21T21:46:52.572Z,101162.00
2023-04-21T21:49:19.316Z,101158.00
2023-04-21T21:51:46.322Z,101167.00
2023-04-21T21:54:13.033Z,101152.00
2023-04-21T21:56:39.840Z,101164.00
2023-04-21T21:59:07.003Z,101146.00
2023-04-21T22:01:33.867Z,101151.00
2023-04-21T22:04:00.777Z,101162.00
2023-04-21T22:06:28.973Z,101151.00
2023-04-21T22:08:55.899Z,101156.00
2023-04-21T22:11:22.847Z,101158.00
2023-04-21T22:13:49.664Z,101151.00
2023-04-21T22:16:16.866Z,101164.00
2023-04-21T22:18:44.913Z,101160.00
2023-04-21T22:21:11.895Z,101147.00
2023-04-21T22:23:38.694Z,101143.00
2023-04-21T22:26:05.643Z,101153.00
2023-04-21T22:28:32.418Z,101134.00
2023-04-21T22:30:59.252Z,101144.00
2023-04-21T22:33:26.017Z,101141.00
2023-04-21T22:35:52.859Z,101131.00
2023-04-21T22:38:19.585Z,101137.00
2023-04-21T22:40:46.774Z,101137.00
2023-04-21T22:43:13.622Z,101130.00
2023-04-21T22:45:41.247Z,101136.00
2023-04-21T22:48:09.458Z,101135.00
2023-04-21T22:50:36.320Z,101125.00
2023-04-21T22:53:03.084Z,101128.00
2023-04-21T22:55:29.872Z,101120.00
2023-04-21T22:57:56.644Z,101121.00
2023-04-21T23:00:23.499Z,101120.00
2023-04-21T23:02:50.403Z,101125.00
2023-04-21T23:05:17.354Z,101121.00
2023-04-21T23:07:44.142Z,101101.00
2023-04-21T23:10:11.391Z,101099.00
2023-04-21T23:12:38.170Z,101113.00
2023-04-21T23:15:05.551Z,101110.00
2023-04-21T23:17:32.336Z,101117.00
2023-04-21T23:19:59.332Z,101115.00
2023-04-21T23:22:26.374Z,101124.00
2023-04-21T23:24:53.264Z,101111.00
2023-04-21T23:27:20.005Z,101107.00
2023-04-21T23:29:46.907Z,101100.00
2023-04-21T23:32:13.702Z,101105.00
2023-04-21T23:34:40.625Z,101108.00
2023-04-21T23:37:07.434Z,101102.00
2023-04-21T23:39:34.184Z,101094.00
2023-04-21T23:42:02.523Z,101092.00
2023-04-21T23:44:29.328Z,101088.00
2023-04-21T23:46:56.101Z,101087.00
2023-04-21T23:49:22.830Z,101079.00
2023-04-21T23:51:49.558Z,101075.00
2023-04-21T23:54:16.412Z,101065.00
2023-04-21T23:56:43.174Z,101075.00
2023-04-21T23:59:09.901Z,101058.00
